Deeson, Mississippi
Current Conditions -  °F | °C
As of 4:55 PM on Wednesday 22 Oct 2014 (Local Time) from KRNV Reporting Station
Clear Clear  
Wind Chill: 70°   Ceiling: Unl
Heat Index: 70°   Visibility: 10mi
Dew Point: 46°   Wind: 10mph
Humidity: 42%   Direction: 50°NE
Pressure: 30.13"   Gusts: NA
Location:  34.0609°N, 90.7985°W
Report Text: KRNV 222155Z AUTO 05009KT 10SM CLR 21/08 A3013 RMK AO2 T02100075
Loading
Personal Weather Stations






























Interactive Weather Map
Tropical Storm Tracking
New forecast layout! Learn more

10-Day Weather Forecast

Advertisements
Track Severe Weather on mobile